DLH9HA EGCC-EDDF
Flight info
| Callsign | DLH9HA |
|---|---|
| Flight time | N/A |
| Altitude | 35000 |
| Route | SONEX L975 DESIG L603 DOLAS DCT NAVPI DCT NOLRU DCT DIXAT DIXAT1A |
| Aircraft | A320/M-SDE3FGHIRWY/LB1 |
Departure
| Time | 2026-05-04 22:18 |
|---|---|
| Airport | Manchester Airport (EGCC) |
Arrival
| Time | N/A |
|---|---|
| Airport | Frankfurt Main Airport (EDDF) |
| Time | Latitude | Longitude | Altitude | Speed | Heading |
|---|---|---|---|---|---|
| 2026-05-04 21:40 | 53.36763 | -2.28397 | 255 ft | 0 kts | 135° |
| 2026-05-04 21:55 | 53.36768 | -2.28406 | 255 ft | 4 kts | 135° |
| 2026-05-04 21:55 | 53.36785 | -2.28435 | 255 ft | 2 kts | 134° |
| 2026-05-04 21:56 | 53.36799 | -2.28453 | 255 ft | 4 kts | 210° |
| 2026-05-04 21:56 | 53.36818 | -2.28424 | 255 ft | 4 kts | 225° |
| 2026-05-04 21:56 | 53.36809 | -2.28438 | 255 ft | 4 kts | 224° |
| 2026-05-04 21:56 | 53.36790 | -2.28469 | 255 ft | 4 kts | 224° |
| 2026-05-04 21:57 | 53.36786 | -2.28476 | 255 ft | 0 kts | 224° |
| 2026-05-04 22:03 | 53.36780 | -2.28485 | 255 ft | 7 kts | 224° |
| 2026-05-04 22:03 | 53.36690 | -2.28633 | 255 ft | 22 kts | 223° |
| 2026-05-04 22:03 | 53.36609 | -2.28775 | 255 ft | 12 kts | 191° |
| 2026-05-04 22:03 | 53.36551 | -2.28710 | 255 ft | 10 kts | 135° |
| 2026-05-04 22:04 | 53.36536 | -2.28684 | 255 ft | 0 kts | 135° |
| 2026-05-04 22:04 | 53.36520 | -2.28665 | 255 ft | 8 kts | 149° |
| 2026-05-04 22:04 | 53.36456 | -2.28637 | 255 ft | 9 kts | 161° |
| 2026-05-04 22:04 | 53.36429 | -2.28607 | 255 ft | 0 kts | 137° |
| 2026-05-04 22:05 | 53.36428 | -2.28603 | 255 ft | 2 kts | 126° |
| 2026-05-04 22:05 | 53.36434 | -2.28538 | 255 ft | 6 kts | 90° |
| 2026-05-04 22:06 | 53.36423 | -2.28480 | 255 ft | 5 kts | 115° |
| 2026-05-04 22:06 | 53.36410 | -2.28437 | 255 ft | 3 kts | 115° |
| 2026-05-04 22:06 | 53.36402 | -2.28406 | 255 ft | 2 kts | 113° |
| 2026-05-04 22:06 | 53.36397 | -2.28387 | 255 ft | 1 kts | 113° |
| 2026-05-04 22:07 | 53.36396 | -2.28385 | 255 ft | 0 kts | 116° |
| 2026-05-04 22:09 | 53.36396 | -2.28384 | 255 ft | 1 kts | 116° |
| 2026-05-04 22:09 | 53.36377 | -2.28341 | 255 ft | 9 kts | 131° |
| 2026-05-04 22:10 | 53.36331 | -2.28261 | 255 ft | 9 kts | 135° |
| 2026-05-04 22:10 | 53.36290 | -2.28194 | 255 ft | 7 kts | 134° |
| 2026-05-04 22:10 | 53.36258 | -2.28139 | 255 ft | 6 kts | 134° |
| 2026-05-04 22:10 | 53.36221 | -2.28076 | 255 ft | 9 kts | 135° |
| 2026-05-04 22:11 | 53.36177 | -2.28003 | 255 ft | 8 kts | 135° |
| 2026-05-04 22:11 | 53.36149 | -2.27963 | 255 ft | 4 kts | 140° |
| 2026-05-04 22:11 | 53.36122 | -2.27927 | 255 ft | 5 kts | 141° |
| 2026-05-04 22:11 | 53.36093 | -2.27888 | 255 ft | 9 kts | 142° |
| 2026-05-04 22:12 | 53.36031 | -2.27809 | 255 ft | 11 kts | 142° |
| 2026-05-04 22:12 | 53.35973 | -2.27745 | 255 ft | 9 kts | 156° |
| 2026-05-04 22:12 | 53.35918 | -2.27727 | 255 ft | 7 kts | 181° |
| 2026-05-04 22:12 | 53.35863 | -2.27727 | 255 ft | 9 kts | 181° |
| 2026-05-04 22:13 | 53.35798 | -2.27706 | 251 ft | 10 kts | 143° |
| 2026-05-04 22:13 | 53.35738 | -2.27646 | 249 ft | 11 kts | 159° |
| 2026-05-04 22:13 | 53.35667 | -2.27585 | 246 ft | 12 kts | 142° |
| 2026-05-04 22:13 | 53.35620 | -2.27491 | 245 ft | 10 kts | 94° |
| 2026-05-04 22:14 | 53.35649 | -2.27396 | 249 ft | 9 kts | 52° |
| 2026-05-04 22:14 | 53.35682 | -2.27328 | 255 ft | 8 kts | 51° |
| 2026-05-04 22:14 | 53.35735 | -2.27215 | 255 ft | 16 kts | 52° |
| 2026-05-04 22:14 | 53.35802 | -2.27072 | 255 ft | 15 kts | 54° |
| 2026-05-04 22:15 | 53.35853 | -2.26939 | 256 ft | 12 kts | 55° |
| 2026-05-04 22:15 | 53.35901 | -2.26833 | 256 ft | 11 kts | 56° |
| 2026-05-04 22:15 | 53.35964 | -2.26688 | 256 ft | 19 kts | 52° |
| 2026-05-04 22:15 | 53.36049 | -2.26507 | 256 ft | 20 kts | 50° |
| 2026-05-04 22:16 | 53.36140 | -2.26320 | 255 ft | 21 kts | 52° |
| 2026-05-04 22:16 | 53.36234 | -2.26174 | 255 ft | 18 kts | 48° |
| 2026-05-04 22:16 | 53.36272 | -2.25987 | 255 ft | 17 kts | 78° |
| 2026-05-04 22:16 | 53.36280 | -2.25815 | 257 ft | 12 kts | 111° |
| 2026-05-04 22:17 | 53.36231 | -2.25759 | 260 ft | 9 kts | 184° |
| 2026-05-04 22:17 | 53.36152 | -2.25915 | 259 ft | 32 kts | 248° |
| 2026-05-04 22:17 | 53.35862 | -2.26470 | 270 ft | 101 kts | 228° |
| 2026-05-04 22:17 | 53.35265 | -2.27721 | 253 ft | 169 kts | 232° |
| 2026-05-04 22:18 | 53.34489 | -2.29320 | 884 ft | 180 kts | 232° |
| 2026-05-04 22:18 | 53.33697 | -2.30926 | 1801 ft | 179 kts | 233° |
| 2026-05-04 22:18 | 53.32855 | -2.32651 | 2037 ft | 202 kts | 234° |
| 2026-05-04 22:18 | 53.32291 | -2.33952 | 2254 ft | 215 kts | 242° |
| 2026-05-04 22:19 | 53.31869 | -2.36412 | 2645 ft | 231 kts | 275° |
| 2026-05-04 22:19 | 53.32482 | -2.38945 | 3103 ft | 247 kts | 312° |
| 2026-05-04 22:19 | 53.33913 | -2.40551 | 3878 ft | 255 kts | 339° |
| 2026-05-04 22:19 | 53.35640 | -2.41436 | 4648 ft | 260 kts | 342° |
| 2026-05-04 22:20 | 53.37373 | -2.42292 | 5554 ft | 264 kts | 342° |
| 2026-05-04 22:20 | 53.39151 | -2.43201 | 6344 ft | 267 kts | 341° |
| 2026-05-04 22:20 | 53.40919 | -2.44164 | 7224 ft | 268 kts | 340° |
| 2026-05-04 22:20 | 53.42696 | -2.45150 | 8016 ft | 271 kts | 340° |
| 2026-05-04 22:21 | 53.44577 | -2.45686 | 8686 ft | 283 kts | 0° |
| 2026-05-04 22:21 | 53.46469 | -2.44743 | 9447 ft | 290 kts | 31° |
| 2026-05-04 22:21 | 53.47936 | -2.42395 | 10188 ft | 297 kts | 56° |
| 2026-05-04 22:21 | 53.48724 | -2.39174 | 10868 ft | 303 kts | 81° |
| 2026-05-04 22:22 | 53.48665 | -2.35641 | 11560 ft | 306 kts | 101° |
| 2026-05-04 22:22 | 53.48394 | -2.32135 | 12259 ft | 309 kts | 90° |
| 2026-05-04 22:22 | 53.48708 | -2.28494 | 12606 ft | 327 kts | 74° |
| 2026-05-04 22:22 | 53.49353 | -2.24696 | 12750 ft | 349 kts | 74° |
| 2026-05-04 22:23 | 53.49940 | -2.20599 | 12882 ft | 371 kts | 79° |
| 2026-05-04 22:23 | 53.50327 | -2.16243 | 13244 ft | 383 kts | 83° |
| 2026-05-04 22:23 | 53.50636 | -2.11768 | 13834 ft | 388 kts | 84° |
| 2026-05-04 22:23 | 53.50957 | -2.07251 | 14403 ft | 391 kts | 83° |
| 2026-05-04 22:24 | 53.51329 | -2.02683 | 14968 ft | 395 kts | 82° |
| 2026-05-04 22:24 | 53.51755 | -1.98104 | 15543 ft | 399 kts | 81° |
| 2026-05-04 22:24 | 53.52196 | -1.93480 | 16115 ft | 402 kts | 84° |
| 2026-05-04 22:24 | 53.52278 | -1.88778 | 16676 ft | 405 kts | 94° |
| 2026-05-04 22:25 | 53.51843 | -1.84095 | 17236 ft | 407 kts | 105° |
| 2026-05-04 22:25 | 53.51040 | -1.79521 | 17809 ft | 410 kts | 108° |
| 2026-05-04 22:25 | 53.50213 | -1.74913 | 18375 ft | 413 kts | 108° |
| 2026-05-04 22:25 | 53.49383 | -1.70270 | 18870 ft | 416 kts | 108° |
| 2026-05-04 22:26 | 53.48552 | -1.65612 | 19382 ft | 418 kts | 107° |
| 2026-05-04 22:26 | 53.47730 | -1.60984 | 19877 ft | 419 kts | 107° |
| 2026-05-04 22:26 | 53.46896 | -1.56275 | 20374 ft | 421 kts | 107° |
| 2026-05-04 22:26 | 53.46058 | -1.51554 | 20834 ft | 424 kts | 107° |
| 2026-05-04 22:27 | 53.45210 | -1.46807 | 21280 ft | 426 kts | 107° |
| 2026-05-04 22:27 | 53.44349 | -1.42030 | 21732 ft | 428 kts | 107° |
| 2026-05-04 22:27 | 53.43480 | -1.37242 | 22177 ft | 430 kts | 107° |
| 2026-05-04 22:27 | 53.42606 | -1.32440 | 22607 ft | 432 kts | 107° |
| 2026-05-04 22:28 | 53.41727 | -1.27606 | 23036 ft | 434 kts | 107° |
| 2026-05-04 22:28 | 53.40849 | -1.22761 | 23441 ft | 436 kts | 107° |
| 2026-05-04 22:28 | 53.39970 | -1.17890 | 23805 ft | 437 kts | 107° |
| 2026-05-04 22:28 | 53.39081 | -1.12992 | 24132 ft | 439 kts | 107° |
| 2026-05-04 22:29 | 53.38188 | -1.08092 | 24456 ft | 441 kts | 107° |
| 2026-05-04 22:29 | 53.37289 | -1.03176 | 24784 ft | 442 kts | 107° |